sensor_id;sensor_type;location;lat;lon;timestamp;pressure;altitude;pressure_sealevel;temperature;humidity
12868;BME280;33517;49.866;8.320;2022-12-15T00:00:10;99410.91;;;-2.04;89.00
12868;BME280;33517;49.866;8.320;2022-12-15T00:03:21;99420.28;;;-2.26;89.65
12868;BME280;33517;49.866;8.320;2022-12-15T00:06:30;99419.69;;;-2.30;90.33
12868;BME280;33517;49.866;8.320;2022-12-15T00:09:40;99425.81;;;-2.20;90.47
12868;BME280;33517;49.866;8.320;2022-12-15T00:12:49;99419.09;;;-2.10;89.83
12868;BME280;33517;49.866;8.320;2022-12-15T00:15:59;99417.16;;;-2.19;89.37
12868;BME280;33517;49.866;8.320;2022-12-15T00:19:09;99408.88;;;-2.35;89.56
12868;BME280;33517;49.866;8.320;2022-12-15T00:22:19;99434.88;;;-2.38;90.40
12868;BME280;33517;49.866;8.320;2022-12-15T00:25:28;99427.25;;;-2.39;90.68
12868;BME280;33517;49.866;8.320;2022-12-15T00:28:38;99421.69;;;-2.46;90.89
12868;BME280;33517;49.866;8.320;2022-12-15T00:31:47;99424.50;;;-2.49;90.93
12868;BME280;33517;49.866;8.320;2022-12-15T00:34:58;99433.84;;;-2.48;91.52
12868;BME280;33517;49.866;8.320;2022-12-15T00:38:08;99440.88;;;-2.50;91.42
12868;BME280;33517;49.866;8.320;2022-12-15T00:41:17;99440.19;;;-2.28;90.56
12868;BME280;33517;49.866;8.320;2022-12-15T00:44:09;99441.44;;;-2.10;90.20
12868;BME280;33517;49.866;8.320;2022-12-15T00:47:01;99445.28;;;-2.16;89.56
12868;BME280;33517;49.866;8.320;2022-12-15T00:49:53;99447.03;;;-2.40;90.09
12868;BME280;33517;49.866;8.320;2022-12-15T00:53:03;99445.72;;;-2.58;90.80
12868;BME280;33517;49.866;8.320;2022-12-15T00:56:13;99457.97;;;-2.49;91.40
12868;BME280;33517;49.866;8.320;2022-12-15T00:59:22;99457.50;;;-2.30;90.46
12868;BME280;33517;49.866;8.320;2022-12-15T01:02:32;99460.69;;;-2.27;89.42
12868;BME280;33517;49.866;8.320;2022-12-15T01:05:41;99466.88;;;-2.29;89.29
12868;BME280;33517;49.866;8.320;2022-12-15T01:08:52;99483.97;;;-2.28;89.06
12868;BME280;33517;49.866;8.320;2022-12-15T01:12:01;99485.00;;;-2.31;88.76
12868;BME280;33517;49.866;8.320;2022-12-15T01:15:10;99492.13;;;-2.34;88.52
12868;BME280;33517;49.866;8.320;2022-12-15T01:18:20;99488.84;;;-2.36;88.36
12868;BME280;33517;49.866;8.320;2022-12-15T01:21:30;99488.34;;;-2.41;88.37
12868;BME280;33517;49.866;8.320;2022-12-15T01:24:23;99491.34;;;-2.47;88.56
12868;BME280;33517;49.866;8.320;2022-12-15T01:27:15;99496.91;;;-2.53;88.81
12868;BME280;33517;49.866;8.320;2022-12-15T01:30:10;99503.59;;;-2.63;89.61
12868;BME280;33517;49.866;8.320;2022-12-15T01:33:03;99504.13;;;-2.58;89.40
12868;BME280;33517;49.866;8.320;2022-12-15T01:35:56;99502.06;;;-2.53;89.00
12868;BME280;33517;49.866;8.320;2022-12-15T01:38:48;99508.66;;;-2.49;89.39
12868;BME280;33517;49.866;8.320;2022-12-15T01:41:41;99511.94;;;-2.47;88.90
12868;BME280;33517;49.866;8.320;2022-12-15T01:44:32;99511.94;;;-2.47;88.75
12868;BME280;33517;49.866;8.320;2022-12-15T01:47:26;99518.72;;;-2.46;89.25
12868;BME280;33517;49.866;8.320;2022-12-15T01:50:18;99523.75;;;-2.45;88.87
12868;BME280;33517;49.866;8.320;2022-12-15T01:53:11;99520.38;;;-2.45;88.53
12868;BME280;33517;49.866;8.320;2022-12-15T01:56:07;99521.19;;;-2.45;88.68
12868;BME280;33517;49.866;8.320;2022-12-15T01:59:02;99513.38;;;-2.43;88.61
12868;BME280;33517;49.866;8.320;2022-12-15T02:01:55;99513.88;;;-2.38;88.69
12868;BME280;33517;49.866;8.320;2022-12-15T02:04:49;99527.59;;;-2.38;88.89
12868;BME280;33517;49.866;8.320;2022-12-15T02:07:42;99530.28;;;-2.39;89.09
12868;BME280;33517;49.866;8.320;2022-12-15T02:10:43;99541.19;;;-2.48;88.53
12868;BME280;33517;49.866;8.320;2022-12-15T02:13:47;99541.31;;;-2.75;88.79
12868;BME280;33517;49.866;8.320;2022-12-15T02:16:54;99533.69;;;-2.76;89.23
12868;BME280;33517;49.866;8.320;2022-12-15T02:23:19;99537.41;;;-2.93;88.11
12868;BME280;33517;49.866;8.320;2022-12-15T02:26:27;99525.56;;;-3.08;88.19
12868;BME280;33517;49.866;8.320;2022-12-15T02:29:36;99535.19;;;-3.24;88.33
12868;BME280;33517;49.866;8.320;2022-12-15T02:32:36;99531.94;;;-3.40;88.21
12868;BME280;33517;49.866;8.320;2022-12-15T02:35:36;99530.19;;;-3.52;88.18
12868;BME280;33517;49.866;8.320;2022-12-15T02:38:34;99527.28;;;-3.60;88.31
12868;BME280;33517;49.866;8.320;2022-12-15T02:41:34;99534.13;;;-3.73;88.27
12868;BME280;33517;49.866;8.320;2022-12-15T02:44:29;99532.31;;;-3.86;88.41
12868;BME280;33517;49.866;8.320;2022-12-15T02:47:30;99527.94;;;-3.98;88.34
12868;BME280;33517;49.866;8.320;2022-12-15T02:50:37;99539.91;;;-4.11;88.08
12868;BME280;33517;49.866;8.320;2022-12-15T02:53:44;99545.78;;;-4.23;87.92
12868;BME280;33517;49.866;8.320;2022-12-15T02:56:43;99544.63;;;-4.31;88.18
12868;BME280;33517;49.866;8.320;2022-12-15T02:59:41;99550.31;;;-4.40;88.14
12868;BME280;33517;49.866;8.320;2022-12-15T03:02:38;99555.09;;;-4.48;88.39
12868;BME280;33517;49.866;8.320;2022-12-15T03:05:33;99559.84;;;-4.56;88.28
12868;BME280;33517;49.866;8.320;2022-12-15T03:08:25;99562.88;;;-4.64;87.64
12868;BME280;33517;49.866;8.320;2022-12-15T03:11:17;99570.19;;;-4.72;88.08
12868;BME280;33517;49.866;8.320;2022-12-15T03:14:08;99578.34;;;-4.80;87.94
12868;BME280;33517;49.866;8.320;2022-12-15T03:17:00;99589.78;;;-4.85;88.08
12868;BME280;33517;49.866;8.320;2022-12-15T03:19:53;99590.03;;;-4.90;87.93
12868;BME280;33517;49.866;8.320;2022-12-15T03:22:46;99593.69;;;-4.94;88.07
12868;BME280;33517;49.866;8.320;2022-12-15T03:25:38;99591.41;;;-4.98;88.10
12868;BME280;33517;49.866;8.320;2022-12-15T03:28:31;99598.47;;;-5.02;87.99
12868;BME280;33517;49.866;8.320;2022-12-15T03:31:23;99601.28;;;-5.06;87.97
12868;BME280;33517;49.866;8.320;2022-12-15T03:34:15;99608.22;;;-5.08;88.21
12868;BME280;33517;49.866;8.320;2022-12-15T03:37:07;99600.44;;;-5.07;88.33
12868;BME280;33517;49.866;8.320;2022-12-15T03:40:01;99611.34;;;-5.03;88.09
12868;BME280;33517;49.866;8.320;2022-12-15T03:42:53;99611.94;;;-4.98;88.54
12868;BME280;33517;49.866;8.320;2022-12-15T03:45:44;99614.88;;;-4.90;88.67
12868;BME280;33517;49.866;8.320;2022-12-15T03:48:36;99622.22;;;-4.84;88.20
12868;BME280;33517;49.866;8.320;2022-12-15T03:51:28;99625.50;;;-4.82;88.02
12868;BME280;33517;49.866;8.320;2022-12-15T03:54:20;99632.31;;;-4.81;87.92
12868;BME280;33517;49.866;8.320;2022-12-15T03:57:13;99625.34;;;-4.79;87.79
12868;BME280;33517;49.866;8.320;2022-12-15T04:00:06;99627.81;;;-4.78;88.30
12868;BME280;33517;49.866;8.320;2022-12-15T04:02:58;99623.53;;;-4.77;87.90
12868;BME280;33517;49.866;8.320;2022-12-15T04:05:50;99620.31;;;-4.81;88.05
12868;BME280;33517;49.866;8.320;2022-12-15T04:08:42;99619.84;;;-4.87;87.92
12868;BME280;33517;49.866;8.320;2022-12-15T04:11:34;99630.34;;;-4.92;87.99
12868;BME280;33517;49.866;8.320;2022-12-15T04:14:27;99630.34;;;-4.92;87.87
12868;BME280;33517;49.866;8.320;2022-12-15T04:17:19;99627.63;;;-4.89;88.01
12868;BME280;33517;49.866;8.320;2022-12-15T04:20:11;99628.16;;;-4.84;88.21
12868;BME280;33517;49.866;8.320;2022-12-15T04:23:03;99631.22;;;-4.77;88.31
12868;BME280;33517;49.866;8.320;2022-12-15T04:25:57;99634.09;;;-4.68;88.36
12868;BME280;33517;49.866;8.320;2022-12-15T04:29:06;99628.31;;;-4.57;88.39
12868;BME280;33517;49.866;8.320;2022-12-15T04:32:16;99621.09;;;-4.50;88.17
12868;BME280;33517;49.866;8.320;2022-12-15T04:35:26;99626.13;;;-4.49;88.04
12868;BME280;33517;49.866;8.320;2022-12-15T04:38:36;99626.31;;;-4.52;87.99
12868;BME280;33517;49.866;8.320;2022-12-15T04:41:45;99630.81;;;-4.55;87.78
12868;BME280;33517;49.866;8.320;2022-12-15T04:44:56;99619.06;;;-4.59;88.13
12868;BME280;33517;49.866;8.320;2022-12-15T04:48:08;99623.47;;;-4.61;88.00
12868;BME280;33517;49.866;8.320;2022-12-15T04:51:17;99634.72;;;-4.64;87.88
12868;BME280;33517;49.866;8.320;2022-12-15T04:54:27;99637.47;;;-4.67;87.90
12868;BME280;33517;49.866;8.320;2022-12-15T04:57:36;99639.66;;;-4.61;88.10
12868;BME280;33517;49.866;8.320;2022-12-15T05:00:45;99642.91;;;-4.57;88.20
12868;BME280;33517;49.866;8.320;2022-12-15T05:03:56;99646.22;;;-4.55;88.17
12868;BME280;33517;49.866;8.320;2022-12-15T05:07:05;99641.06;;;-4.55;88.10
12868;BME280;33517;49.866;8.320;2022-12-15T05:10:14;99647.09;;;-4.56;88.08
12868;BME280;33517;49.866;8.320;2022-12-15T05:13:24;99644.81;;;-4.61;87.95
12868;BME280;33517;49.866;8.320;2022-12-15T05:16:33;99653.22;;;-4.73;87.83
12868;BME280;33517;49.866;8.320;2022-12-15T05:19:44;99654.00;;;-4.87;87.66
12868;BME280;33517;49.866;8.320;2022-12-15T05:22:54;99655.25;;;-4.94;87.68
12868;BME280;33517;49.866;8.320;2022-12-15T05:26:03;99654.03;;;-5.02;87.77
12868;BME280;33517;49.866;8.320;2022-12-15T05:29:13;99658.13;;;-5.14;87.63
12868;BME280;33517;49.866;8.320;2022-12-15T05:32:22;99658.66;;;-5.23;87.64
12868;BME280;33517;49.866;8.320;2022-12-15T05:35:15;99647.97;;;-5.31;87.52
12868;BME280;33517;49.866;8.320;2022-12-15T05:38:07;99638.25;;;-5.40;87.53
12868;BME280;33517;49.866;8.320;2022-12-15T05:40:59;99645.34;;;-5.45;87.79
12868;BME280;33517;49.866;8.320;2022-12-15T05:43:51;99647.44;;;-5.51;87.78
12868;BME280;33517;49.866;8.320;2022-12-15T05:46:43;99653.78;;;-5.58;87.95
12868;BME280;33517;49.866;8.320;2022-12-15T05:49:36;99647.34;;;-5.66;87.91
12868;BME280;33517;49.866;8.320;2022-12-15T05:52:29;99656.19;;;-5.71;87.73
12868;BME280;33517;49.866;8.320;2022-12-15T05:55:21;99664.38;;;-5.80;87.75
12868;BME280;33517;49.866;8.320;2022-12-15T05:58:13;99670.72;;;-5.87;87.81
12868;BME280;33517;49.866;8.320;2022-12-15T06:01:07;99681.28;;;-5.93;87.19
12868;BME280;33517;49.866;8.320;2022-12-15T06:03:59;99684.84;;;-5.96;87.45
12868;BME280;33517;49.866;8.320;2022-12-15T06:06:52;99688.31;;;-5.97;87.83
12868;BME280;33517;49.866;8.320;2022-12-15T06:09:45;99706.97;;;-5.95;88.04
12868;BME280;33517;49.866;8.320;2022-12-15T06:12:37;99706.19;;;-5.95;87.92
12868;BME280;33517;49.866;8.320;2022-12-15T06:15:29;99707.72;;;-5.93;88.09
12868;BME280;33517;49.866;8.320;2022-12-15T06:18:21;99701.06;;;-5.95;88.02
12868;BME280;33517;49.866;8.320;2022-12-15T06:21:15;99708.00;;;-5.97;87.89
12868;BME280;33517;49.866;8.320;2022-12-15T06:24:08;99714.22;;;-6.03;87.54
12868;BME280;33517;49.866;8.320;2022-12-15T06:27:02;99720.88;;;-6.16;88.49
12868;BME280;33517;49.866;8.320;2022-12-15T06:29:54;99723.69;;;-6.20;88.32
12868;BME280;33517;49.866;8.320;2022-12-15T06:32:46;99730.53;;;-6.21;88.80
12868;BME280;33517;49.866;8.320;2022-12-15T06:35:38;99723.63;;;-6.19;88.67
12868;BME280;33517;49.866;8.320;2022-12-15T06:38:31;99732.78;;;-6.15;88.77
12868;BME280;33517;49.866;8.320;2022-12-15T06:41:23;99728.56;;;-6.16;88.37
12868;BME280;33517;49.866;8.320;2022-12-15T06:44:17;99725.25;;;-6.18;87.80
12868;BME280;33517;49.866;8.320;2022-12-15T06:47:09;99727.06;;;-6.20;88.28
12868;BME280;33517;49.866;8.320;2022-12-15T06:50:01;99730.63;;;-6.22;88.24
12868;BME280;33517;49.866;8.320;2022-12-15T06:52:53;99735.06;;;-6.26;88.35
12868;BME280;33517;49.866;8.320;2022-12-15T06:55:45;99739.50;;;-6.29;88.19
12868;BME280;33517;49.866;8.320;2022-12-15T06:58:37;99745.63;;;-6.32;88.20
12868;BME280;33517;49.866;8.320;2022-12-15T07:01:31;99730.47;;;-6.36;88.25
12868;BME280;33517;49.866;8.320;2022-12-15T07:04:23;99724.78;;;-6.41;88.14
12868;BME280;33517;49.866;8.320;2022-12-15T07:07:15;99732.50;;;-6.43;88.42
12868;BME280;33517;49.866;8.320;2022-12-15T07:10:07;99743.56;;;-6.42;88.28
12868;BME280;33517;49.866;8.320;2022-12-15T07:13:00;99746.59;;;-6.51;89.33
12868;BME280;33517;49.866;8.320;2022-12-15T07:15:52;99751.91;;;-6.39;89.81
12868;BME280;33517;49.866;8.320;2022-12-15T07:18:46;99750.19;;;-6.21;89.71
12868;BME280;33517;49.866;8.320;2022-12-15T07:21:38;99745.97;;;-6.05;89.52
12868;BME280;33517;49.866;8.320;2022-12-15T07:24:30;99737.63;;;-5.93;89.12
12868;BME280;33517;49.866;8.320;2022-12-15T07:27:22;99729.59;;;-5.86;89.08
12868;BME280;33517;49.866;8.320;2022-12-15T07:30:15;99724.78;;;-5.76;89.20
12868;BME280;33517;49.866;8.320;2022-12-15T07:33:07;99736.13;;;-5.65;88.94
12868;BME280;33517;49.866;8.320;2022-12-15T07:36:00;99736.63;;;-5.42;89.47
12868;BME280;33517;49.866;8.320;2022-12-15T07:38:56;99740.19;;;-5.14;89.62
12868;BME280;33517;49.866;8.320;2022-12-15T07:41:50;99749.06;;;-4.90;89.83
12868;BME280;33517;49.866;8.320;2022-12-15T07:44:42;99751.78;;;-4.61;89.83
12868;BME280;33517;49.866;8.320;2022-12-15T07:47:34;99761.56;;;-4.38;89.85
12868;BME280;33517;49.866;8.320;2022-12-15T07:50:26;99775.56;;;-4.14;90.49
12868;BME280;33517;49.866;8.320;2022-12-15T07:53:20;99772.19;;;-4.01;90.17
12868;BME280;33517;49.866;8.320;2022-12-15T07:56:12;99770.91;;;-3.94;90.71
12868;BME280;33517;49.866;8.320;2022-12-15T07:59:05;99771.19;;;-3.84;90.96
12868;BME280;33517;49.866;8.320;2022-12-15T08:01:57;99777.81;;;-3.80;91.40
12868;BME280;33517;49.866;8.320;2022-12-15T08:04:50;99769.94;;;-3.77;92.04
12868;BME280;33517;49.866;8.320;2022-12-15T08:07:42;99776.34;;;-3.70;92.23
12868;BME280;33517;49.866;8.320;2022-12-15T08:10:38;99771.59;;;-3.62;92.77
12868;BME280;33517;49.866;8.320;2022-12-15T08:13:30;99778.75;;;-3.53;92.58
12868;BME280;33517;49.866;8.320;2022-12-15T08:16:23;99784.78;;;-3.40;92.75
12868;BME280;33517;49.866;8.320;2022-12-15T08:19:16;99775.03;;;-3.35;92.60
12868;BME280;33517;49.866;8.320;2022-12-15T08:22:08;99777.53;;;-3.33;93.50
12868;BME280;33517;49.866;8.320;2022-12-15T08:25:01;99766.84;;;-3.13;93.60
12868;BME280;33517;49.866;8.320;2022-12-15T08:27:55;99763.41;;;-3.00;92.90
12868;BME280;33517;49.866;8.320;2022-12-15T08:30:47;99763.94;;;-2.95;93.15
12868;BME280;33517;49.866;8.320;2022-12-15T08:33:39;99767.16;;;-2.91;92.93
12868;BME280;33517;49.866;8.320;2022-12-15T08:36:31;99773.81;;;-2.74;92.71
12868;BME280;33517;49.866;8.320;2022-12-15T08:39:23;99770.53;;;-2.64;92.69
12868;BME280;33517;49.866;8.320;2022-12-15T08:42:15;99779.81;;;-2.61;92.62
12868;BME280;33517;49.866;8.320;2022-12-15T08:45:09;99770.03;;;-2.56;92.49
12868;BME280;33517;49.866;8.320;2022-12-15T08:48:02;99793.19;;;-2.42;91.95
12868;BME280;33517;49.866;8.320;2022-12-15T08:50:54;99805.78;;;-2.38;92.32
12868;BME280;33517;49.866;8.320;2022-12-15T08:53:47;99803.59;;;-2.31;92.08
12868;BME280;33517;49.866;8.320;2022-12-15T08:56:39;99789.50;;;-2.26;92.05
12868;BME280;33517;49.866;8.320;2022-12-15T08:59:31;99783.94;;;-2.32;91.70
12868;BME280;33517;49.866;8.320;2022-12-15T09:02:24;99795.19;;;-2.21;92.28
12868;BME280;33517;49.866;8.320;2022-12-15T09:05:16;99808.69;;;-2.17;92.07
12868;BME280;33517;49.866;8.320;2022-12-15T09:08:08;99808.81;;;-2.19;92.25
12868;BME280;33517;49.866;8.320;2022-12-15T09:11:01;99806.22;;;-2.19;91.82
12868;BME280;33517;49.866;8.320;2022-12-15T09:13:55;99808.09;;;-2.21;91.90
12868;BME280;33517;49.866;8.320;2022-12-15T09:16:47;99829.22;;;-2.16;91.68
12868;BME280;33517;49.866;8.320;2022-12-15T09:19:41;99831.91;;;-2.17;92.10
12868;BME280;33517;49.866;8.320;2022-12-15T09:22:33;99831.75;;;-2.28;92.02
12868;BME280;33517;49.866;8.320;2022-12-15T09:25:26;99830.72;;;-2.26;91.91
12868;BME280;33517;49.866;8.320;2022-12-15T09:28:17;99838.00;;;-2.18;92.34
12868;BME280;33517;49.866;8.320;2022-12-15T09:31:11;99840.19;;;-2.00;92.28
12868;BME280;33517;49.866;8.320;2022-12-15T09:34:04;99840.41;;;-1.77;92.17
12868;BME280;33517;49.866;8.320;2022-12-15T09:36:57;99846.28;;;-1.75;91.19
12868;BME280;33517;49.866;8.320;2022-12-15T09:39:49;99845.91;;;-1.69;91.59
12868;BME280;33517;49.866;8.320;2022-12-15T09:42:50;99847.81;;;-1.86;91.23
12868;BME280;33517;49.866;8.320;2022-12-15T09:45:44;99851.66;;;-1.78;91.62
12868;BME280;33517;49.866;8.320;2022-12-15T09:48:40;99853.41;;;-1.66;91.38
12868;BME280;33517;49.866;8.320;2022-12-15T09:51:38;99862.59;;;-1.62;90.87
12868;BME280;33517;49.866;8.320;2022-12-15T09:54:35;99865.72;;;-1.57;90.45
12868;BME280;33517;49.866;8.320;2022-12-15T09:57:35;99859.22;;;-1.50;90.92
12868;BME280;33517;49.866;8.320;2022-12-15T10:00:32;99858.09;;;-1.46;90.17
12868;BME280;33517;49.866;8.320;2022-12-15T10:03:33;99865.22;;;-1.50;90.66
12868;BME280;33517;49.866;8.320;2022-12-15T10:06:32;99871.72;;;-1.44;90.89
12868;BME280;33517;49.866;8.320;2022-12-15T10:09:26;99875.31;;;-1.34;90.93
12868;BME280;33517;49.866;8.320;2022-12-15T10:12:25;99859.22;;;-1.25;91.13
12868;BME280;33517;49.866;8.320;2022-12-15T10:15:23;99858.59;;;-1.29;90.39
12868;BME280;33517;49.866;8.320;2022-12-15T10:18:19;99851.56;;;-1.39;90.00
12868;BME280;33517;49.866;8.320;2022-12-15T10:21:12;99835.75;;;-1.22;90.66
12868;BME280;33517;49.866;8.320;2022-12-15T10:24:13;99839.16;;;-0.97;91.00
12868;BME280;33517;49.866;8.320;2022-12-15T10:27:16;99836.69;;;-0.74;90.17
12868;BME280;33517;49.866;8.320;2022-12-15T10:30:13;99828.81;;;-0.60;89.24
12868;BME280;33517;49.866;8.320;2022-12-15T10:33:13;99825.63;;;-0.64;89.49
12868;BME280;33517;49.866;8.320;2022-12-15T10:36:10;99821.13;;;-0.73;89.09
12868;BME280;33517;49.866;8.320;2022-12-15T10:39:02;99830.31;;;-0.81;89.44
12868;BME280;33517;49.866;8.320;2022-12-15T10:42:11;99824.72;;;-0.75;89.29
12868;BME280;33517;49.866;8.320;2022-12-15T10:45:33;99827.25;;;-0.63;89.74
12868;BME280;33517;49.866;8.320;2022-12-15T10:48:25;99831.06;;;-0.56;89.12
12868;BME280;33517;49.866;8.320;2022-12-15T10:51:24;99819.63;;;-0.41;89.20
12868;BME280;33517;49.866;8.320;2022-12-15T10:54:17;99818.69;;;-0.40;89.01
12868;BME280;33517;49.866;8.320;2022-12-15T10:57:15;99818.38;;;-0.35;89.31
12868;BME280;33517;49.866;8.320;2022-12-15T11:00:25;99826.72;;;-0.55;88.11
12868;BME280;33517;49.866;8.320;2022-12-15T11:03:24;99830.63;;;-0.50;88.63
12868;BME280;33517;49.866;8.320;2022-12-15T11:06:18;99825.63;;;-0.40;89.12
12868;BME280;33517;49.866;8.320;2022-12-15T11:09:25;99821.16;;;-0.38;88.45
12868;BME280;33517;49.866;8.320;2022-12-15T11:12:19;99814.03;;;-0.35;88.21
12868;BME280;33517;49.866;8.320;2022-12-15T11:15:37;99818.25;;;-0.34;87.18
12868;BME280;33517;49.866;8.320;2022-12-15T11:18:37;99810.28;;;-0.31;88.09
12868;BME280;33517;49.866;8.320;2022-12-15T11:21:37;99812.97;;;-0.32;87.41
12868;BME280;33517;49.866;8.320;2022-12-15T11:24:35;99810.13;;;-0.40;88.07
12868;BME280;33517;49.866;8.320;2022-12-15T11:27:32;99794.72;;;-0.42;87.61
12868;BME280;33517;49.866;8.320;2022-12-15T11:30:31;99784.97;;;-0.38;87.62
12868;BME280;33517;49.866;8.320;2022-12-15T11:33:24;99787.19;;;-0.45;87.50
12868;BME280;33517;49.866;8.320;2022-12-15T11:36:24;99779.72;;;-0.37;87.45
12868;BME280;33517;49.866;8.320;2022-12-15T11:39:32;99771.97;;;-0.37;86.61
12868;BME280;33517;49.866;8.320;2022-12-15T11:42:34;99765.06;;;-0.25;86.64
12868;BME280;33517;49.866;8.320;2022-12-15T11:45:35;99768.13;;;-0.20;86.81
12868;BME280;33517;49.866;8.320;2022-12-15T11:48:36;99761.72;;;-0.38;86.42
12868;BME280;33517;49.866;8.320;2022-12-15T11:51:38;99761.41;;;-0.23;86.82
12868;BME280;33517;49.866;8.320;2022-12-15T11:54:37;99736.56;;;-0.02;87.06
12868;BME280;33517;49.866;8.320;2022-12-15T11:57:45;99747.75;;;0.10;86.71
12868;BME280;33517;49.866;8.320;2022-12-15T12:00:49;99745.03;;;0.00;85.76
12868;BME280;33517;49.866;8.320;2022-12-15T12:03:53;99727.50;;;-0.18;85.84
12868;BME280;33517;49.866;8.320;2022-12-15T12:07:00;99737.25;;;-0.11;85.89
12868;BME280;33517;49.866;8.320;2022-12-15T12:10:03;99741.25;;;-0.07;85.94
12868;BME280;33517;49.866;8.320;2022-12-15T12:13:10;99729.75;;;-0.14;86.13
12868;BME280;33517;49.866;8.320;2022-12-15T12:16:16;99742.44;;;-0.11;85.72
12868;BME280;33517;49.866;8.320;2022-12-15T12:19:17;99739.50;;;-0.06;86.29
12868;BME280;33517;49.866;8.320;2022-12-15T12:22:19;99726.59;;;0.05;85.56
12868;BME280;33517;49.866;8.320;2022-12-15T12:25:14;99714.50;;;0.06;85.11
12868;BME280;33517;49.866;8.320;2022-12-15T12:28:14;99710.25;;;0.16;85.93
12868;BME280;33517;49.866;8.320;2022-12-15T12:31:14;99706.84;;;0.15;85.23
12868;BME280;33517;49.866;8.320;2022-12-15T12:34:14;99699.31;;;0.01;85.20
12868;BME280;33517;49.866;8.320;2022-12-15T12:37:24;99693.31;;;0.00;85.27
12868;BME280;33517;49.866;8.320;2022-12-15T12:40:22;99683.91;;;-0.01;85.42
12868;BME280;33517;49.866;8.320;2022-12-15T12:43:25;99691.69;;;-0.01;85.16
12868;BME280;33517;49.866;8.320;2022-12-15T12:46:23;99686.97;;;-0.18;85.20
12868;BME280;33517;49.866;8.320;2022-12-15T12:49:22;99685.09;;;-0.16;86.04
12868;BME280;33517;49.866;8.320;2022-12-15T12:52:21;99684.50;;;-0.08;85.92
12868;BME280;33517;49.866;8.320;2022-12-15T12:55:24;99687.66;;;-0.16;85.29
12868;BME280;33517;49.866;8.320;2022-12-15T12:58:30;99687.16;;;-0.21;85.71
12868;BME280;33517;49.866;8.320;2022-12-15T13:01:25;99688.59;;;-0.17;85.43
12868;BME280;33517;49.866;8.320;2022-12-15T13:04:39;99675.66;;;-0.06;85.32
12868;BME280;33517;49.866;8.320;2022-12-15T13:07:33;99656.41;;;-0.13;85.02
12868;BME280;33517;49.866;8.320;2022-12-15T13:10:27;99668.59;;;-0.26;85.89
12868;BME280;33517;49.866;8.320;2022-12-15T13:13:36;99662.16;;;-0.20;85.24
12868;BME280;33517;49.866;8.320;2022-12-15T13:16:31;99653.56;;;-0.10;85.32
12868;BME280;33517;49.866;8.320;2022-12-15T13:22:49;99635.78;;;-0.36;85.49
12868;BME280;33517;49.866;8.320;2022-12-15T13:25:43;99627.06;;;-0.57;86.04
12868;BME280;33517;49.866;8.320;2022-12-15T13:28:42;99630.72;;;-0.60;85.42
12868;BME280;33517;49.866;8.320;2022-12-15T13:31:45;99627.50;;;-0.74;86.25
12868;BME280;33517;49.866;8.320;2022-12-15T13:34:42;99620.31;;;-0.82;86.70
12868;BME280;33517;49.866;8.320;2022-12-15T13:37:45;99613.06;;;-0.77;86.25
12868;BME280;33517;49.866;8.320;2022-12-15T13:40:52;99613.16;;;-0.78;86.13
12868;BME280;33517;49.866;8.320;2022-12-15T13:43:45;99611.19;;;-0.75;85.99
12868;BME280;33517;49.866;8.320;2022-12-15T13:46:42;99603.19;;;-0.83;86.52
12868;BME280;33517;49.866;8.320;2022-12-15T13:49:41;99607.41;;;-0.82;87.33
12868;BME280;33517;49.866;8.320;2022-12-15T13:52:37;99601.44;;;-0.82;87.22
12868;BME280;33517;49.866;8.320;2022-12-15T13:55:36;99599.50;;;-0.92;86.42
12868;BME280;33517;49.866;8.320;2022-12-15T13:58:36;99607.81;;;-0.99;86.64
12868;BME280;33517;49.866;8.320;2022-12-15T14:01:30;99611.00;;;-0.96;87.06
12868;BME280;33517;49.866;8.320;2022-12-15T14:04:22;99593.47;;;-1.03;87.58
12868;BME280;33517;49.866;8.320;2022-12-15T14:07:15;99605.78;;;-1.07;87.78
12868;BME280;33517;49.866;8.320;2022-12-15T14:10:17;99619.06;;;-1.11;87.45
12868;BME280;33517;49.866;8.320;2022-12-15T14:13:11;99609.44;;;-1.09;88.06
12868;BME280;33517;49.866;8.320;2022-12-15T14:16:16;99611.69;;;-1.05;87.71
12868;BME280;33517;49.866;8.320;2022-12-15T14:19:12;99622.59;;;-1.01;88.04
12868;BME280;33517;49.866;8.320;2022-12-15T14:22:17;99619.31;;;-1.03;87.98
12868;BME280;33517;49.866;8.320;2022-12-15T14:25:13;99622.59;;;-1.01;88.23
12868;BME280;33517;49.866;8.320;2022-12-15T14:28:23;99625.56;;;-0.95;87.88
12868;BME280;33517;49.866;8.320;2022-12-15T14:31:19;99634.34;;;-0.97;88.04
12868;BME280;33517;49.866;8.320;2022-12-15T14:34:20;99639.19;;;-1.16;88.47
12868;BME280;33517;49.866;8.320;2022-12-15T14:37:16;99643.88;;;-1.21;88.94
12868;BME280;33517;49.866;8.320;2022-12-15T14:40:13;99639.25;;;-1.29;88.37
12868;BME280;33517;49.866;8.320;2022-12-15T14:43:11;99640.44;;;-1.45;88.62
12868;BME280;33517;49.866;8.320;2022-12-15T14:46:06;99642.97;;;-1.56;88.19
12868;BME280;33517;49.866;8.320;2022-12-15T14:49:03;99642.47;;;-1.74;87.95
12868;BME280;33517;49.866;8.320;2022-12-15T14:51:59;99645.59;;;-1.81;88.56
12868;BME280;33517;49.866;8.320;2022-12-15T14:54:53;99650.88;;;-1.83;88.92
12868;BME280;33517;49.866;8.320;2022-12-15T14:57:47;99652.59;;;-1.83;89.15
12868;BME280;33517;49.866;8.320;2022-12-15T15:00:48;99656.63;;;-1.79;89.93
12868;BME280;33517;49.866;8.320;2022-12-15T15:03:40;99659.50;;;-1.71;89.80
12868;BME280;33517;49.866;8.320;2022-12-15T15:06:35;99663.44;;;-1.78;89.24
12868;BME280;33517;49.866;8.320;2022-12-15T15:09:30;99646.47;;;-1.94;89.46
12868;BME280;33517;49.866;8.320;2022-12-15T15:12:23;99657.00;;;-2.09;88.71
12868;BME280;33517;49.866;8.320;2022-12-15T15:15:19;99665.03;;;-2.26;89.51
12868;BME280;33517;49.866;8.320;2022-12-15T15:18:13;99664.22;;;-2.39;89.40
12868;BME280;33517;49.866;8.320;2022-12-15T15:21:15;99660.88;;;-2.54;89.28
12868;BME280;33517;49.866;8.320;2022-12-15T15:24:21;99661.50;;;-2.63;89.95
12868;BME280;33517;49.866;8.320;2022-12-15T15:27:23;99666.75;;;-2.64;90.41
12868;BME280;33517;49.866;8.320;2022-12-15T15:30:19;99671.16;;;-2.66;90.37
12868;BME280;33517;49.866;8.320;2022-12-15T15:33:11;99668.78;;;-2.69;90.54
12868;BME280;33517;49.866;8.320;2022-12-15T15:36:07;99675.06;;;-2.73;90.73
12868;BME280;33517;49.866;8.320;2022-12-15T15:39:01;99670.22;;;-2.78;89.82
12868;BME280;33517;49.866;8.320;2022-12-15T15:41:55;99667.31;;;-2.73;90.38
12868;BME280;33517;49.866;8.320;2022-12-15T15:44:47;99669.63;;;-2.69;90.31
12868;BME280;33517;49.866;8.320;2022-12-15T15:47:40;99666.03;;;-2.66;90.26